createdAt,value
2017-01-27T00:00:03.213Z,25.83
2017-01-27T00:01:03.319Z,25.9
2017-01-27T00:02:03.975Z,25.87
2017-01-27T00:03:03.262Z,25.87
2017-01-27T00:04:02.893Z,25.9
2017-01-27T00:05:03.260Z,25.95
2017-01-27T00:06:04.206Z,25.9
2017-01-27T00:07:03.273Z,25.85
2017-01-27T00:08:03.271Z,25.85
2017-01-27T00:09:03.326Z,25.87
2017-01-27T00:10:02.937Z,25.76
2017-01-27T00:11:02.903Z,25.8
2017-01-27T00:12:03.300Z,25.73
2017-01-27T00:13:03.306Z,25.77
2017-01-27T00:14:02.971Z,25.75
2017-01-27T00:15:03.324Z,25.85
2017-01-27T00:16:03.380Z,25.88
2017-01-27T00:17:04.285Z,25.9
2017-01-27T00:18:03.350Z,25.88
2017-01-27T00:19:03.458Z,25.77
2017-01-27T00:20:03.016Z,25.83
2017-01-27T00:21:03.418Z,25.73
2017-01-27T00:22:03.378Z,25.85
2017-01-27T00:23:03.433Z,25.77
2017-01-27T00:24:02.993Z,25.83
2017-01-27T00:25:03.397Z,25.73
2017-01-27T00:26:03.507Z,25.9
2017-01-27T00:27:03.412Z,25.97
2017-01-27T00:28:04.071Z,25.87
2017-01-27T00:29:02.684Z,25.85
2017-01-27T00:30:03.435Z,25.87
2017-01-27T00:31:03.446Z,25.83
2017-01-27T00:32:03.451Z,25.76
2017-01-27T00:33:03.810Z,25.82
2017-01-27T00:34:03.460Z,25.87
2017-01-27T00:35:03.515Z,25.88
2017-01-27T00:36:03.483Z,25.88
2017-01-27T00:37:04.512Z,25.9
2017-01-27T00:38:03.590Z,25.97
2017-01-27T00:39:03.952Z,25.9
2017-01-27T00:40:03.164Z,25.9
2017-01-27T00:41:03.586Z,25.8
2017-01-27T00:42:03.573Z,25.9
2017-01-27T00:43:03.133Z,25.88
2017-01-27T00:44:03.537Z,25.95
2017-01-27T00:45:03.595Z,25.91
2017-01-27T00:46:03.907Z,25.91
2017-01-27T00:47:03.561Z,25.92
2017-01-27T00:48:04.436Z,25.9
2017-01-27T00:49:03.578Z,25.92
2017-01-27T00:50:03.640Z,25.92
2017-01-27T00:51:03.242Z,25.91
2017-01-27T00:52:04.578Z,25.98
2017-01-27T00:53:03.213Z,25.85
2017-01-27T00:54:03.615Z,25.82
2017-01-27T00:55:03.324Z,25.91
2017-01-27T00:56:03.630Z,25.85
2017-01-27T00:57:03.633Z,26.06
2017-01-27T00:58:03.694Z,25.94
2017-01-27T00:59:03.650Z,25.9
2017-01-27T01:00:03.656Z,25.92
2017-01-27T01:01:03.676Z,25.94
2017-01-27T01:02:03.975Z,25.99
2017-01-27T01:03:04.939Z,26.01
2017-01-27T01:04:03.688Z,26.05
2017-01-27T01:05:03.786Z,25.99
2017-01-27T01:06:03.704Z,25.97
2017-01-27T01:07:03.713Z,25.98
2017-01-27T01:08:03.721Z,26.12
2017-01-27T01:09:03.837Z,26.01
2017-01-27T01:10:03.734Z,26.07
2017-01-27T01:11:03.346Z,26.09
2017-01-27T01:12:03.751Z,25.99
2017-01-27T01:13:03.362Z,25.99
2017-01-27T01:14:04.721Z,26.06
2017-01-27T01:15:03.772Z,26.12
2017-01-27T01:16:03.830Z,25.99
2017-01-27T01:17:03.839Z,26.05
2017-01-27T01:18:03.446Z,26.1
2017-01-27T01:19:03.408Z,25.97
2017-01-27T01:20:03.920Z,25.99
2017-01-27T01:21:03.872Z,26.01
2017-01-27T01:22:03.430Z,25.95
2017-01-27T01:23:03.493Z,26.01
2017-01-27T01:24:03.895Z,26.12
2017-01-27T01:25:04.398Z,26.01
2017-01-27T01:26:03.956Z,25.9
2017-01-27T01:27:03.965Z,26.12
2017-01-27T01:28:03.870Z,25.98
2017-01-27T01:29:03.888Z,26.01
2017-01-27T01:30:03.934Z,26.07
2017-01-27T01:31:03.597Z,26.15
2017-01-27T01:32:03.900Z,26.09
2017-01-27T01:33:03.960Z,26.07
2017-01-27T01:34:04.918Z,26.07
2017-01-27T01:35:03.524Z,26.12
2017-01-27T01:36:04.136Z,25.97
2017-01-27T01:37:03.934Z,26.09
2017-01-27T01:38:04.921Z,26.1
2017-01-27T01:39:03.557Z,26.09
2017-01-27T01:40:03.965Z,26.12
2017-01-27T01:41:03.573Z,26.1
2017-01-27T01:42:04.030Z,26.13
2017-01-27T01:43:03.587Z,25.98
2017-01-27T01:44:03.597Z,25.97
2017-01-27T01:45:04.002Z,25.99
2017-01-27T01:46:04.083Z,25.99
2017-01-27T01:47:04.594Z,26.09
2017-01-27T01:48:04.024Z,25.94
2017-01-27T01:49:04.078Z,26.02
2017-01-27T01:50:04.090Z,25.99
2017-01-27T01:51:04.041Z,26.06
2017-01-27T01:52:04.101Z,25.97
2017-01-27T01:53:04.110Z,26.07
2017-01-27T01:54:04.117Z,26.09
2017-01-27T01:55:03.679Z,25.97
2017-01-27T01:56:04.134Z,25.94
2017-01-27T01:57:03.694Z,25.9
2017-01-27T01:58:04.399Z,25.95
2017-01-27T01:59:04.108Z,25.97
2017-01-27T02:00:05.094Z,25.98
2017-01-27T02:01:04.122Z,25.97
2017-01-27T02:02:03.785Z,26.05
2017-01-27T02:03:04.139Z,25.98
2017-01-27T02:04:04.193Z,26.01
2017-01-27T02:05:04.204Z,25.91
2017-01-27T02:06:04.215Z,26.02
2017-01-27T02:07:03.770Z,26.02
2017-01-27T02:08:03.828Z,26.2
2017-01-27T02:09:04.035Z,26.12
2017-01-27T02:10:03.795Z,26.02
2017-01-27T02:11:05.325Z,26.06
2017-01-27T02:12:04.207Z,25.99
2017-01-27T02:13:04.261Z,25.98
2017-01-27T02:14:04.277Z,25.98
2017-01-27T02:15:03.919Z,26.07
2017-01-27T02:16:04.236Z,26.13
2017-01-27T02:17:04.242Z,25.99
2017-01-27T02:18:04.255Z,25.98
2017-01-27T02:19:04.317Z,26.01
2017-01-27T02:20:04.314Z,25.97
2017-01-27T02:21:03.874Z,26.02
2017-01-27T02:22:05.279Z,26.07
2017-01-27T02:23:04.315Z,25.99
2017-01-27T02:24:04.345Z,26.13
2017-01-27T02:25:04.349Z,26.09
2017-01-27T02:26:04.309Z,26.1
2017-01-27T02:27:04.325Z,25.97
2017-01-27T02:28:04.325Z,26.13
2017-01-27T02:29:04.380Z,26.07
2017-01-27T02:30:04.339Z,26.1
2017-01-27T02:31:04.400Z,26.02
2017-01-27T02:32:04.362Z,26.17
2017-01-27T02:33:05.263Z,26.18
2017-01-27T02:34:04.027Z,26.1
2017-01-27T02:35:04.383Z,26.1
2017-01-27T02:36:04.388Z,26.18
2017-01-27T02:37:04.396Z,26.1
2017-01-27T02:38:04.402Z,26.02
2017-01-27T02:39:04.417Z,26.06
2017-01-27T02:40:04.066Z,26.12
2017-01-27T02:41:04.026Z,26.06
2017-01-27T02:42:04.430Z,26.06
2017-01-27T02:43:04.044Z,25.97
2017-01-27T02:44:04.946Z,26.13
2017-01-27T02:45:04.456Z,26.13
2017-01-27T02:46:04.513Z,26.12
2017-01-27T02:47:04.467Z,26.09
2017-01-27T02:48:04.480Z,26.1
2017-01-27T02:49:04.484Z,26.1
2017-01-27T02:50:04.148Z,25.98
2017-01-27T02:51:04.513Z,26.05
2017-01-27T02:52:04.609Z,25.99
2017-01-27T02:53:04.511Z,26.02
2017-01-27T02:54:04.629Z,26.01
2017-01-27T02:55:05.329Z,25.99
2017-01-27T02:56:04.584Z,25.87
2017-01-27T02:57:04.543Z,25.82
2017-01-27T02:58:04.552Z,26.02
2017-01-27T02:59:04.265Z,25.95
2017-01-27T03:00:04.617Z,26.02
2017-01-27T03:01:04.575Z,26.02
2017-01-27T03:02:04.639Z,25.95
2017-01-27T03:03:04.641Z,26.02
2017-01-27T03:04:04.650Z,26.06
2017-01-27T03:05:03.863Z,25.97
2017-01-27T03:06:04.620Z,25.94
2017-01-27T03:07:04.227Z,25.98
2017-01-27T03:08:04.284Z,26.06
2017-01-27T03:09:04.241Z,26.05
2017-01-27T03:10:05.046Z,25.97
2017-01-27T03:11:04.699Z,25.98
2017-01-27T03:12:04.656Z,25.98
2017-01-27T03:13:04.292Z,25.97
2017-01-27T03:14:04.674Z,26.01
2017-01-27T03:15:04.335Z,26.01
2017-01-27T03:16:03.949Z,25.88
2017-01-27T03:17:05.507Z,26.06
2017-01-27T03:18:04.731Z,25.97
2017-01-27T03:19:05.281Z,26.01
2017-01-27T03:20:05.138Z,25.95
2017-01-27T03:21:04.497Z,25.97
2017-01-27T03:22:04.788Z,25.98
2017-01-27T03:23:04.792Z,25.99
2017-01-27T03:24:04.797Z,25.98
2017-01-27T03:25:04.756Z,25.9
2017-01-27T03:26:04.416Z,25.95
2017-01-27T03:27:04.477Z,25.92
2017-01-27T03:28:04.238Z,25.99
2017-01-27T03:29:04.785Z,25.95
2017-01-27T03:30:05.135Z,26.1
2017-01-27T03:31:04.799Z,25.99
2017-01-27T03:32:04.469Z,26.07
2017-01-27T03:33:04.557Z,25.9
2017-01-27T03:34:04.874Z,25.91
2017-01-27T03:35:04.864Z,25.87
2017-01-27T03:36:04.512Z,25.91
2017-01-27T03:37:06.200Z,25.9
2017-01-27T03:38:04.881Z,25.91
2017-01-27T03:39:05.822Z,26.02
2017-01-27T03:40:04.473Z,26.01
2017-01-27T03:41:04.890Z,25.95
2017-01-27T03:42:04.577Z,26.01
2017-01-27T03:43:04.916Z,25.98
2017-01-27T03:44:04.934Z,25.98
2017-01-27T03:45:04.906Z,25.99
2017-01-27T03:46:05.015Z,25.98
2017-01-27T03:47:04.921Z,26.1
2017-01-27T03:48:05.028Z,26.07
2017-01-27T03:49:04.940Z,26.01
2017-01-27T03:50:04.968Z,25.98
2017-01-27T03:51:05.003Z,25.98
2017-01-27T03:52:04.965Z,25.99
2017-01-27T03:53:04.333Z,25.87
2017-01-27T03:54:04.999Z,25.99
2017-01-27T03:55:05.054Z,25.9
2017-01-27T03:56:05.040Z,25.82
2017-01-27T03:57:04.998Z,25.85
2017-01-27T03:58:05.055Z,25.88
2017-01-27T03:59:05.008Z,25.88
2017-01-27T04:00:05.020Z,25.9
2017-01-27T04:01:05.025Z,25.91
2017-01-27T04:02:05.919Z,25.87
2017-01-27T04:03:05.042Z,25.87
2017-01-27T04:04:05.724Z,25.87
2017-01-27T04:05:05.126Z,25.85
2017-01-27T04:06:05.065Z,25.82
2017-01-27T04:07:05.132Z,25.85
2017-01-27T04:08:04.746Z,25.82
2017-01-27T04:09:04.399Z,25.85
2017-01-27T04:10:05.397Z,25.9
2017-01-27T04:11:05.203Z,25.88
2017-01-27T04:12:04.764Z,25.88
2017-01-27T04:13:05.176Z,25.83
2017-01-27T04:14:05.221Z,25.79
2017-01-27T04:15:05.221Z,25.87
2017-01-27T04:16:05.209Z,25.91
2017-01-27T04:17:05.155Z,25.85
2017-01-27T04:18:05.300Z,25.85
2017-01-27T04:19:05.293Z,25.91
2017-01-27T04:20:05.894Z,25.76
2017-01-27T04:21:04.925Z,25.77
2017-01-27T04:22:05.286Z,25.8
2017-01-27T04:23:05.340Z,25.75
2017-01-27T04:24:05.256Z,25.82
2017-01-27T04:25:05.588Z,25.62
2017-01-27T04:26:04.852Z,25.6
2017-01-27T04:27:06.069Z,25.69
2017-01-27T04:28:05.372Z,25.6
2017-01-27T04:29:05.328Z,25.67
2017-01-27T04:30:04.930Z,25.67
2017-01-27T04:31:05.254Z,25.64
2017-01-27T04:32:05.024Z,25.62
2017-01-27T04:33:04.929Z,25.72
2017-01-27T04:34:06.237Z,25.72
2017-01-27T04:35:05.452Z,25.6
2017-01-27T04:36:05.289Z,25.62
2017-01-27T04:37:05.373Z,25.65
2017-01-27T04:38:05.415Z,25.58
2017-01-27T04:39:05.601Z,25.62
2017-01-27T04:40:05.008Z,25.64
2017-01-27T04:41:04.965Z,25.55
2017-01-27T04:42:05.484Z,25.61
2017-01-27T04:43:05.186Z,25.57
2017-01-27T04:44:05.354Z,25.65
2017-01-27T04:45:05.059Z,25.65
2017-01-27T04:46:05.089Z,25.67
2017-01-27T04:47:05.466Z,25.57
2017-01-27T04:48:05.622Z,25.58
2017-01-27T04:49:05.552Z,25.45
2017-01-27T04:50:05.565Z,25.6
2017-01-27T04:51:05.572Z,25.65
2017-01-27T04:52:05.531Z,25.69
2017-01-27T04:53:05.187Z,25.7
2017-01-27T04:54:05.166Z,25.67
2017-01-27T04:55:05.134Z,25.7
2017-01-27T04:56:05.613Z,25.61
2017-01-27T04:57:05.168Z,25.65
2017-01-27T04:58:05.619Z,25.45
2017-01-27T04:59:05.455Z,25.6
2017-01-27T05:00:05.666Z,25.42
2017-01-27T05:01:05.163Z,25.55
2017-01-27T05:02:05.592Z,25.58
2017-01-27T05:03:05.673Z,25.58
2017-01-27T05:04:05.647Z,25.6
2017-01-27T05:05:05.655Z,25.62
2017-01-27T05:06:05.658Z,25.6
2017-01-27T05:07:05.730Z,25.67
2017-01-27T05:08:05.604Z,25.62
2017-01-27T05:09:05.801Z,25.6
2017-01-27T05:10:05.620Z,25.57
2017-01-27T05:11:05.658Z,25.58
2017-01-27T05:12:05.737Z,25.58
2017-01-27T05:13:05.245Z,25.52
2017-01-27T05:14:06.120Z,25.58
2017-01-27T05:15:05.804Z,25.69
2017-01-27T05:16:05.843Z,25.58
2017-01-27T05:17:05.686Z,25.6
2017-01-27T05:18:05.349Z,25.61
2017-01-27T05:19:05.820Z,25.64
2017-01-27T05:20:05.710Z,25.62
2017-01-27T05:21:07.648Z,25.6
2017-01-27T05:22:05.343Z,25.6
2017-01-27T05:23:06.882Z,25.55
2017-01-27T05:24:05.331Z,25.55
2017-01-27T05:25:05.726Z,25.52
2017-01-27T05:26:05.407Z,25.6
2017-01-27T05:27:05.308Z,25.6
2017-01-27T05:28:06.191Z,25.54
2017-01-27T05:29:05.866Z,25.47
2017-01-27T05:30:05.793Z,25.51
2017-01-27T05:31:05.858Z,25.46
2017-01-27T05:32:05.824Z,25.5
2017-01-27T05:33:05.461Z,25.45
2017-01-27T05:34:05.833Z,25.39
2017-01-27T05:35:05.885Z,25.47
2017-01-27T05:36:05.930Z,25.36
2017-01-27T05:37:05.390Z,25.4
2017-01-27T05:38:05.776Z,25.51
2017-01-27T05:39:05.360Z,25.42
2017-01-27T05:40:06.674Z,25.39
2017-01-27T05:41:05.515Z,25.46
2017-01-27T05:42:06.606Z,25.45
2017-01-27T05:43:05.597Z,25.45
2017-01-27T05:44:05.488Z,25.4
2017-01-27T05:45:06.012Z,25.38
2017-01-27T05:46:05.649Z,25.43
2017-01-27T05:47:05.983Z,25.47
2017-01-27T05:48:05.636Z,25.42
2017-01-27T05:49:05.587Z,25.4
2017-01-27T05:50:05.440Z,25.36
2017-01-27T05:51:05.986Z,25.39
2017-01-27T05:52:05.947Z,25.39
2017-01-27T05:53:06.038Z,25.42
2017-01-27T05:54:07.716Z,25.43
2017-01-27T05:55:05.678Z,25.42
2017-01-27T05:56:05.970Z,25.45
2017-01-27T05:57:06.157Z,25.45
2017-01-27T05:58:05.553Z,25.43
2017-01-27T05:59:06.165Z,25.38
2017-01-27T06:00:06.032Z,25.39
2017-01-27T06:01:06.198Z,25.4
2017-01-27T06:02:05.643Z,25.4
2017-01-27T06:03:05.978Z,25.36
2017-01-27T06:04:06.038Z,25.3
2017-01-27T06:05:05.372Z,25.32
2017-01-27T06:06:06.065Z,25.27
2017-01-27T06:07:06.180Z,25.23
2017-01-27T06:08:05.727Z,25.38
2017-01-27T06:09:05.365Z,25.24
2017-01-27T06:10:06.083Z,25.28
2017-01-27T06:11:06.702Z,25.39
2017-01-27T06:12:06.221Z,25.25
2017-01-27T06:13:05.732Z,25.27
2017-01-27T06:14:05.708Z,25.35
2017-01-27T06:15:06.161Z,25.21
2017-01-27T06:16:05.915Z,25.28
2017-01-27T06:17:06.153Z,25.36
2017-01-27T06:18:07.172Z,25.39
2017-01-27T06:19:06.135Z,25.46
2017-01-27T06:20:05.890Z,25.39
2017-01-27T06:21:06.395Z,25.33
2017-01-27T06:22:06.107Z,25.46
2017-01-27T06:23:07.323Z,25.39
2017-01-27T06:24:05.811Z,25.39
2017-01-27T06:25:05.914Z,25.35
2017-01-27T06:26:05.965Z,25.43
2017-01-27T06:27:06.314Z,25.46
2017-01-27T06:28:06.754Z,25.35
2017-01-27T06:29:06.227Z,25.4
2017-01-27T06:30:06.208Z,25.4
2017-01-27T06:31:06.364Z,25.36
2017-01-27T06:32:06.168Z,25.35
2017-01-27T06:33:05.916Z,25.32
2017-01-27T06:34:06.294Z,25.38
2017-01-27T06:35:07.156Z,25.39
2017-01-27T06:36:06.337Z,25.36
2017-01-27T06:37:06.380Z,25.36
2017-01-27T06:38:06.358Z,25.38
2017-01-27T06:39:06.435Z,25.36
2017-01-27T06:40:07.994Z,25.27
2017-01-27T06:41:06.319Z,25.39
2017-01-27T06:42:06.275Z,25.36
2017-01-27T06:43:06.359Z,25.45
2017-01-27T06:44:06.425Z,25.4
2017-01-27T06:45:08.282Z,25.38
2017-01-27T06:46:05.982Z,25.46
2017-01-27T06:47:06.347Z,25.36
2017-01-27T06:48:05.731Z,25.39
2017-01-27T06:49:06.394Z,25.39
2017-01-27T06:50:06.423Z,25.46
2017-01-27T06:51:06.464Z,25.39
2017-01-27T06:52:05.646Z,25.47
2017-01-27T06:53:06.051Z,25.43
2017-01-27T06:54:06.405Z,25.46
2017-01-27T06:55:06.468Z,25.46
2017-01-27T06:56:06.496Z,25.46
2017-01-27T06:57:06.550Z,25.5
2017-01-27T06:58:06.394Z,25.47
2017-01-27T06:59:06.140Z,25.54
2017-01-27T07:00:06.438Z,25.47
2017-01-27T07:01:06.555Z,25.52
2017-01-27T07:02:06.629Z,25.47
2017-01-27T07:03:06.462Z,25.46
2017-01-27T07:04:06.134Z,25.5
2017-01-27T07:05:06.134Z,25.43
2017-01-27T07:06:06.604Z,25.55
2017-01-27T07:07:07.253Z,25.52
2017-01-27T07:08:06.429Z,25.52
2017-01-27T07:09:06.124Z,25.43
2017-01-27T07:10:06.627Z,25.5
2017-01-27T07:11:06.143Z,25.45
2017-01-27T07:12:07.209Z,25.43
2017-01-27T07:13:06.657Z,25.42
2017-01-27T07:14:06.988Z,25.47
2017-01-27T07:15:06.588Z,25.43
2017-01-27T07:16:06.665Z,25.51
2017-01-27T07:17:06.612Z,25.54
2017-01-27T07:18:06.717Z,25.54
2017-01-27T07:19:06.598Z,25.45
2017-01-27T07:20:06.630Z,25.46
2017-01-27T07:21:06.608Z,25.51
2017-01-27T07:22:06.598Z,25.46
2017-01-27T07:23:07.012Z,25.6
2017-01-27T07:24:06.637Z,25.6
2017-01-27T07:25:06.690Z,25.58
2017-01-27T07:26:06.669Z,25.69
2017-01-27T07:27:06.729Z,25.76
2017-01-27T07:28:06.733Z,25.87
2017-01-27T07:29:06.752Z,26.02
2017-01-27T07:30:06.336Z,26.09
2017-01-27T07:31:06.813Z,26.26
2017-01-27T07:32:06.771Z,26.51
2017-01-27T07:33:06.369Z,26.6
2017-01-27T07:34:06.759Z,26.69
2017-01-27T07:35:06.728Z,26.8
2017-01-27T07:36:06.338Z,26.81
2017-01-27T07:37:06.751Z,26.84
2017-01-27T07:38:06.657Z,26.94
2017-01-27T07:39:06.353Z,27.18
2017-01-27T07:40:06.409Z,27.19
2017-01-27T07:41:06.354Z,27.18
2017-01-27T07:42:06.517Z,27.31
2017-01-27T07:43:06.820Z,27.55
2017-01-27T07:44:06.741Z,27.51
2017-01-27T07:45:07.616Z,27.55
2017-01-27T07:46:06.803Z,27.55
2017-01-27T07:47:06.783Z,27.57
2017-01-27T07:48:06.881Z,27.7
2017-01-27T07:49:06.443Z,27.9
2017-01-27T07:50:07.399Z,27.94
2017-01-27T07:51:06.031Z,27.84
2017-01-27T07:52:06.828Z,27.88
2017-01-27T07:53:06.494Z,27.9
2017-01-27T07:54:06.561Z,27.82
2017-01-27T07:55:06.877Z,27.87
2017-01-27T07:56:06.925Z,27.93
2017-01-27T07:57:06.986Z,28.06
2017-01-27T07:58:07.025Z,28.14
2017-01-27T07:59:06.549Z,28
2017-01-27T08:00:06.912Z,28.07
2017-01-27T08:01:06.895Z,27.84
2017-01-27T08:02:06.661Z,27.85
2017-01-27T08:03:07.030Z,28
2017-01-27T08:04:06.979Z,27.97
2017-01-27T08:05:06.575Z,28.03
2017-01-27T08:06:06.955Z,27.93
2017-01-27T08:07:07.039Z,28.02
2017-01-27T08:08:06.967Z,27.93
2017-01-27T08:09:07.118Z,27.84
2017-01-27T08:10:06.923Z,28.02
2017-01-27T08:11:06.721Z,28.06
2017-01-27T08:12:07.079Z,28.04
2017-01-27T08:13:06.630Z,27.97
2017-01-27T08:14:06.573Z,28
2017-01-27T08:15:07.089Z,27.85
2017-01-27T08:16:07.043Z,27.87
2017-01-27T08:17:07.046Z,27.87
2017-01-27T08:18:07.191Z,27.96
2017-01-27T08:19:06.778Z,27.88
2017-01-27T08:20:07.183Z,27.81
2017-01-27T08:21:07.115Z,27.69
2017-01-27T08:22:07.706Z,27.66
2017-01-27T08:23:07.181Z,27.74
2017-01-27T08:24:07.043Z,27.66
2017-01-27T08:25:07.196Z,27.69
2017-01-27T08:26:07.173Z,27.62
2017-01-27T08:27:07.356Z,27.54
2017-01-27T08:28:07.199Z,27.54
2017-01-27T08:29:06.722Z,27.63
2017-01-27T08:30:06.390Z,27.47
2017-01-27T08:31:06.865Z,27.49
2017-01-27T08:32:07.142Z,27.39
2017-01-27T08:33:07.583Z,27.37
2017-01-27T08:34:07.263Z,27.43
2017-01-27T08:35:07.295Z,27.34
2017-01-27T08:36:07.330Z,27.39
2017-01-27T08:37:07.231Z,27.34
2017-01-27T08:38:07.337Z,27.36
2017-01-27T08:39:06.926Z,27.29
2017-01-27T08:40:07.344Z,27.27
2017-01-27T08:41:07.149Z,27.12
2017-01-27T08:42:07.299Z,27.17
2017-01-27T08:43:06.498Z,27.12
2017-01-27T08:44:07.376Z,27.17
2017-01-27T08:45:07.321Z,27.24
2017-01-27T08:46:07.267Z,27.12
2017-01-27T08:47:07.366Z,27.04
2017-01-27T08:48:06.935Z,26.99
2017-01-27T08:49:06.910Z,26.91
2017-01-27T08:50:06.994Z,26.95
2017-01-27T08:51:07.305Z,26.87
2017-01-27T08:52:07.085Z,26.89
2017-01-27T08:53:07.410Z,26.88
2017-01-27T08:54:07.331Z,26.84
2017-01-27T08:55:08.180Z,27
2017-01-27T08:56:07.361Z,27.04
2017-01-27T08:57:07.497Z,27.06
2017-01-27T08:58:07.336Z,27.17
2017-01-27T08:59:07.480Z,27.43
2017-01-27T09:00:07.117Z,27.46
2017-01-27T09:01:07.539Z,27.43
2017-01-27T09:02:07.510Z,27.44
2017-01-27T09:03:07.504Z,27.51
2017-01-27T09:04:07.608Z,27.55
2017-01-27T09:05:07.539Z,27.51
2017-01-27T09:06:07.137Z,27.66
2017-01-27T09:07:07.044Z,27.72
2017-01-27T09:08:07.506Z,27.81
2017-01-27T09:09:07.609Z,27.85
2017-01-27T09:10:07.164Z,27.74
2017-01-27T09:11:07.133Z,27.74
2017-01-27T09:12:07.153Z,27.72
2017-01-27T09:13:07.330Z,27.62
2017-01-27T09:14:07.713Z,27.78
2017-01-27T09:15:07.954Z,27.81
2017-01-27T09:16:07.459Z,27.79
2017-01-27T09:17:07.551Z,27.74
2017-01-27T09:18:07.737Z,27.74
2017-01-27T09:19:07.180Z,27.72
2017-01-27T09:20:07.235Z,27.67
2017-01-27T09:21:07.510Z,27.63
2017-01-27T09:22:07.334Z,27.59
2017-01-27T09:23:07.576Z,27.44
2017-01-27T09:24:07.661Z,27.28
2017-01-27T09:25:07.731Z,27.39
2017-01-27T09:26:07.752Z,27.32
2017-01-27T09:27:07.715Z,27.28
2017-01-27T09:28:07.846Z,27.28
2017-01-27T09:29:06.868Z,27.39
2017-01-27T09:30:06.955Z,27.36
2017-01-27T09:31:07.347Z,27.37
2017-01-27T09:32:07.784Z,27.32
2017-01-27T09:33:07.767Z,27.25
2017-01-27T09:34:07.917Z,27.36
2017-01-27T09:35:08.838Z,27.31
2017-01-27T09:36:07.409Z,27.29
2017-01-27T09:37:07.373Z,27.1
2017-01-27T09:38:07.840Z,27.17
2017-01-27T09:39:07.973Z,27.12
2017-01-27T09:40:07.865Z,27.13
2017-01-27T09:41:07.876Z,27.19
2017-01-27T09:42:07.868Z,27.12
2017-01-27T09:43:07.831Z,27.09
2017-01-27T09:44:07.598Z,27.06
2017-01-27T09:45:07.878Z,27.04
2017-01-27T09:46:07.880Z,27.06
2017-01-27T09:47:07.790Z,27.06
2017-01-27T09:48:07.573Z,27.07
2017-01-27T09:49:07.642Z,27.12
2017-01-27T09:50:07.645Z,27.17
2017-01-27T09:51:07.163Z,27.03
2017-01-27T09:52:07.935Z,26.94
2017-01-27T09:53:07.607Z,26.89
2017-01-27T09:54:07.633Z,27.02
2017-01-27T09:55:07.652Z,26.87
2017-01-27T09:56:08.008Z,26.8
2017-01-27T09:57:07.522Z,26.76
2017-01-27T09:58:07.648Z,26.65
2017-01-27T09:59:08.151Z,26.63
2017-01-27T10:00:07.875Z,26.69
2017-01-27T10:01:07.717Z,26.69
2017-01-27T10:02:08.067Z,26.66
2017-01-27T10:03:07.778Z,26.72
2017-01-27T10:04:08.004Z,26.67
2017-01-27T10:05:07.565Z,26.8
2017-01-27T10:06:07.670Z,26.65
2017-01-27T10:07:07.699Z,26.67
2017-01-27T10:08:08.100Z,26.65
2017-01-27T10:09:07.216Z,26.67
2017-01-27T10:10:08.147Z,26.69
2017-01-27T10:11:08.158Z,26.73
2017-01-27T10:12:07.363Z,26.81
2017-01-27T10:13:08.034Z,26.87
2017-01-27T10:14:08.204Z,27.06
2017-01-27T10:15:07.744Z,27.07
2017-01-27T10:16:07.750Z,26.97
2017-01-27T10:17:07.716Z,27.02
2017-01-27T10:18:08.561Z,26.91
2017-01-27T10:19:08.258Z,26.89
2017-01-27T10:20:08.947Z,26.88
2017-01-27T10:21:08.150Z,26.85
2017-01-27T10:22:08.239Z,26.87
2017-01-27T10:23:09.187Z,26.66
2017-01-27T10:24:08.144Z,26.54
2017-01-27T10:25:08.390Z,26.57
2017-01-27T10:26:08.365Z,26.48
2017-01-27T10:27:08.264Z,26.45
2017-01-27T10:28:08.199Z,26.45
2017-01-27T10:29:07.916Z,26.37
2017-01-27T10:30:07.784Z,26.52
2017-01-27T10:31:07.888Z,26.52
2017-01-27T10:32:08.195Z,26.55
2017-01-27T10:33:07.754Z,26.43
2017-01-27T10:34:07.886Z,26.4
2017-01-27T10:35:08.271Z,26.25
2017-01-27T10:36:08.933Z,26.37
2017-01-27T10:37:07.925Z,26.4
2017-01-27T10:38:08.081Z,26.35
2017-01-27T10:39:08.246Z,26.32
2017-01-27T10:40:07.533Z,26.33
2017-01-27T10:41:08.234Z,26.25
2017-01-27T10:42:07.823Z,26.17
2017-01-27T10:43:08.290Z,26.18
2017-01-27T10:44:08.394Z,26.26
2017-01-27T10:45:07.981Z,26.28
2017-01-27T10:46:07.947Z,26.2
2017-01-27T10:47:08.293Z,26.13
2017-01-27T10:48:08.392Z,26.06
2017-01-27T10:49:08.301Z,26.13
2017-01-27T10:50:08.357Z,26.13
2017-01-27T10:51:08.465Z,26.26
2017-01-27T10:52:08.561Z,26.2
2017-01-27T10:53:08.560Z,26.12
2017-01-27T10:54:09.041Z,26.18
2017-01-27T10:55:08.602Z,26.2
2017-01-27T10:56:09.433Z,26.15
2017-01-27T10:57:08.991Z,26.1
2017-01-27T10:58:08.573Z,25.97
2017-01-27T10:59:08.008Z,26.13
2017-01-27T11:00:07.673Z,25.95
2017-01-27T11:01:08.589Z,25.91
2017-01-27T11:02:08.001Z,25.9
2017-01-27T11:03:08.403Z,25.92
2017-01-27T11:04:08.641Z,25.92
2017-01-27T11:05:08.132Z,25.85
2017-01-27T11:06:08.406Z,25.82
2017-01-27T11:07:08.522Z,25.9
2017-01-27T11:08:09.132Z,26.09
2017-01-27T11:09:08.374Z,26.13
2017-01-27T11:10:08.225Z,26.2
2017-01-27T11:11:08.675Z,26.07
2017-01-27T11:12:08.321Z,26.07
2017-01-27T11:13:08.568Z,26.1
2017-01-27T11:14:08.480Z,25.99
2017-01-27T11:15:08.532Z,25.98
2017-01-27T11:16:08.566Z,26.05
2017-01-27T11:17:08.505Z,26.05
2017-01-27T11:18:08.621Z,26.12
2017-01-27T11:19:08.328Z,26.15
2017-01-27T11:20:08.620Z,26.1
2017-01-27T11:21:08.125Z,26.01
2017-01-27T11:22:09.064Z,25.97
2017-01-27T11:23:08.537Z,25.99
2017-01-27T11:24:08.204Z,25.9
2017-01-27T11:25:08.604Z,25.91
2017-01-27T11:26:08.633Z,25.87
2017-01-27T11:27:08.758Z,25.87
2017-01-27T11:28:08.611Z,25.95
2017-01-27T11:29:08.579Z,25.98
2017-01-27T11:30:08.852Z,25.99
2017-01-27T11:31:08.201Z,26.12
2017-01-27T11:32:08.678Z,25.9
2017-01-27T11:33:08.661Z,25.94
2017-01-27T11:34:08.228Z,25.97
2017-01-27T11:35:08.681Z,25.98
2017-01-27T11:36:08.357Z,25.95
2017-01-27T11:37:08.807Z,25.98
2017-01-27T11:38:08.342Z,25.99
2017-01-27T11:39:08.307Z,26.09
2017-01-27T11:40:08.797Z,26.01
2017-01-27T11:41:08.791Z,26.06
2017-01-27T11:42:08.282Z,25.94
2017-01-27T11:43:08.356Z,25.87
2017-01-27T11:44:08.696Z,25.87
2017-01-27T11:45:08.871Z,25.9
2017-01-27T11:46:08.814Z,25.9
2017-01-27T11:47:08.816Z,25.9
2017-01-27T11:48:08.446Z,25.88
2017-01-27T11:49:08.873Z,26.01
2017-01-27T11:50:08.740Z,25.92
2017-01-27T11:51:08.798Z,25.94
2017-01-27T11:52:08.754Z,25.79
2017-01-27T11:53:08.366Z,25.77
2017-01-27T11:54:08.509Z,25.82
2017-01-27T11:55:08.456Z,25.85
2017-01-27T11:56:08.783Z,25.72
2017-01-27T11:57:08.966Z,25.8
2017-01-27T11:58:08.852Z,25.82
2017-01-27T11:59:08.412Z,25.7
2017-01-27T12:00:08.467Z,25.72
2017-01-27T12:01:08.427Z,25.83
2017-01-27T12:02:08.881Z,25.76
2017-01-27T12:03:08.448Z,25.8
2017-01-27T12:04:08.900Z,25.72
2017-01-27T12:05:08.456Z,25.77
2017-01-27T12:06:08.517Z,25.7
2017-01-27T12:07:08.875Z,25.7
2017-01-27T12:08:09.174Z,25.76
2017-01-27T12:09:08.988Z,25.76
2017-01-27T12:10:09.943Z,25.76
2017-01-27T12:11:08.561Z,25.87
2017-01-27T12:12:08.912Z,25.79
2017-01-27T12:13:08.963Z,25.72
2017-01-27T12:14:08.574Z,25.72
2017-01-27T12:15:08.979Z,25.69
2017-01-27T12:16:08.938Z,25.69
2017-01-27T12:17:09.046Z,25.73
2017-01-27T12:18:08.954Z,25.72
2017-01-27T12:19:09.012Z,25.77
2017-01-27T12:20:09.065Z,25.77
2017-01-27T12:21:08.578Z,25.72
2017-01-27T12:22:08.978Z,25.58
2017-01-27T12:23:08.648Z,25.65
2017-01-27T12:24:08.600Z,25.65
2017-01-27T12:25:09.001Z,25.72
2017-01-27T12:26:08.669Z,25.69
2017-01-27T12:27:09.073Z,25.67
2017-01-27T12:28:09.076Z,25.7
2017-01-27T12:29:09.032Z,25.7
2017-01-27T12:30:08.650Z,25.8
2017-01-27T12:31:09.100Z,25.72
2017-01-27T12:32:08.714Z,25.55
2017-01-27T12:33:09.063Z,25.6
2017-01-27T12:34:08.278Z,25.55
2017-01-27T12:35:09.133Z,25.54
2017-01-27T12:36:09.133Z,25.62
2017-01-27T12:37:08.311Z,25.62
2017-01-27T12:38:09.158Z,25.47
2017-01-27T12:39:09.114Z,25.6
2017-01-27T12:40:09.119Z,25.72
2017-01-27T12:41:09.180Z,25.67
2017-01-27T12:42:09.140Z,25.62
2017-01-27T12:43:09.192Z,25.58
2017-01-27T12:44:09.151Z,25.6
2017-01-27T12:45:09.161Z,25.7
2017-01-27T12:46:08.825Z,25.69
2017-01-27T12:47:09.277Z,25.62
2017-01-27T12:48:09.237Z,25.73
2017-01-27T12:49:09.344Z,25.73
2017-01-27T12:50:08.807Z,25.72
2017-01-27T12:51:09.200Z,25.77
2017-01-27T12:52:09.309Z,25.73
2017-01-27T12:53:09.241Z,25.62
2017-01-27T12:54:08.878Z,25.52
2017-01-27T12:55:08.834Z,25.57
2017-01-27T12:56:08.847Z,25.55